sensor_id;sensor_type;location;lat;lon;timestamp;P1;P2;P0
77515;PMS5003;66627;29.424;-98.496;2023-03-12T00:00:01;28;28;
77515;PMS5003;66627;29.424;-98.496;2023-03-12T00:02:26;27;24;
77515;PMS5003;66627;29.424;-98.496;2023-03-12T00:04:52;28;27;
77515;PMS5003;66627;29.424;-98.496;2023-03-12T00:07:17;27;23;
77515;PMS5003;66627;29.424;-98.496;2023-03-12T00:09:42;30;26;
77515;PMS5003;66627;29.424;-98.496;2023-03-12T00:12:08;29;27;
77515;PMS5003;66627;29.424;-98.496;2023-03-12T00:14:33;26;22;
77515;PMS5003;66627;29.424;-98.496;2023-03-12T00:16:59;28;28;
77515;PMS5003;66627;29.424;-98.496;2023-03-12T00:19:24;29;26;
77515;PMS5003;66627;29.424;-98.496;2023-03-12T00:21:50;36;30;
77515;PMS5003;66627;29.424;-98.496;2023-03-12T00:24:15;31;30;
77515;PMS5003;66627;29.424;-98.496;2023-03-12T00:26:41;25;23;
77515;PMS5003;66627;29.424;-98.496;2023-03-12T00:29:06;31;30;
77515;PMS5003;66627;29.424;-98.496;2023-03-12T00:31:33;28;26;
77515;PMS5003;66627;29.424;-98.496;2023-03-12T00:33:58;30;28;
77515;PMS5003;66627;29.424;-98.496;2023-03-12T00:36:24;29;26;
77515;PMS5003;66627;29.424;-98.496;2023-03-12T00:38:49;31;27;
77515;PMS5003;66627;29.424;-98.496;2023-03-12T00:41:14;30;30;
77515;PMS5003;66627;29.424;-98.496;2023-03-12T00:43:40;29;27;
77515;PMS5003;66627;29.424;-98.496;2023-03-12T00:46:05;58;52;
77515;PMS5003;66627;29.424;-98.496;2023-03-12T00:48:31;50;43;
77515;PMS5003;66627;29.424;-98.496;2023-03-12T00:50:55;37;35;
77515;PMS5003;66627;29.424;-98.496;2023-03-12T00:53:21;31;28;
77515;PMS5003;66627;29.424;-98.496;2023-03-12T00:55:46;30;28;
77515;PMS5003;66627;29.424;-98.496;2023-03-12T00:58:12;34;31;
77515;PMS5003;66627;29.424;-98.496;2023-03-12T01:00:37;30;28;
77515;PMS5003;66627;29.424;-98.496;2023-03-12T01:03:03;28;27;
77515;PMS5003;66627;29.424;-98.496;2023-03-12T01:05:28;31;28;
77515;PMS5003;66627;29.424;-98.496;2023-03-12T01:07:53;31;29;
77515;PMS5003;66627;29.424;-98.496;2023-03-12T01:10:19;29;26;
77515;PMS5003;66627;29.424;-98.496;2023-03-12T01:12:46;31;29;
77515;PMS5003;66627;29.424;-98.496;2023-03-12T01:15:13;30;30;
77515;PMS5003;66627;29.424;-98.496;2023-03-12T01:17:36;31;28;
77515;PMS5003;66627;29.424;-98.496;2023-03-12T01:20:01;32;30;
77515;PMS5003;66627;29.424;-98.496;2023-03-12T01:22:26;28;25;
77515;PMS5003;66627;29.424;-98.496;2023-03-12T01:24:51;31;31;
77515;PMS5003;66627;29.424;-98.496;2023-03-12T01:27:17;33;31;
77515;PMS5003;66627;29.424;-98.496;2023-03-12T01:29:42;31;28;
77515;PMS5003;66627;29.424;-98.496;2023-03-12T01:32:08;33;28;
77515;PMS5003;66627;29.424;-98.496;2023-03-12T01:34:33;26;24;
77515;PMS5003;66627;29.424;-98.496;2023-03-12T01:36:58;29;29;
77515;PMS5003;66627;29.424;-98.496;2023-03-12T01:39:24;30;27;
77515;PMS5003;66627;29.424;-98.496;2023-03-12T01:41:49;48;45;
77515;PMS5003;66627;29.424;-98.496;2023-03-12T01:44:14;34;31;
77515;PMS5003;66627;29.424;-98.496;2023-03-12T01:46:40;40;39;
77515;PMS5003;66627;29.424;-98.496;2023-03-12T01:49:06;100;89;
77515;PMS5003;66627;29.424;-98.496;2023-03-12T01:51:32;138;122;
77515;PMS5003;66627;29.424;-98.496;2023-03-12T01:53:57;79;68;
77515;PMS5003;66627;29.424;-98.496;2023-03-12T01:56:22;87;77;
77515;PMS5003;66627;29.424;-98.496;2023-03-12T01:58:48;80;72;
77515;PMS5003;66627;29.424;-98.496;2023-03-12T02:01:13;80;76;
77515;PMS5003;66627;29.424;-98.496;2023-03-12T02:03:39;74;67;
77515;PMS5003;66627;29.424;-98.496;2023-03-12T02:06:06;60;55;
77515;PMS5003;66627;29.424;-98.496;2023-03-12T02:08:29;70;67;
77515;PMS5003;66627;29.424;-98.496;2023-03-12T02:10:55;137;134;
77515;PMS5003;66627;29.424;-98.496;2023-03-12T02:13:21;82;79;
77515;PMS5003;66627;29.424;-98.496;2023-03-12T02:15:47;64;60;
77515;PMS5003;66627;29.424;-98.496;2023-03-12T02:18:14;61;58;
77515;PMS5003;66627;29.424;-98.496;2023-03-12T02:20:38;63;61;
77515;PMS5003;66627;29.424;-98.496;2023-03-12T02:23:03;101;94;
77515;PMS5003;66627;29.424;-98.496;2023-03-12T02:25:29;95;90;
77515;PMS5003;66627;29.424;-98.496;2023-03-12T02:27:53;68;65;
77515;PMS5003;66627;29.424;-98.496;2023-03-12T02:30:19;105;99;
77515;PMS5003;66627;29.424;-98.496;2023-03-12T02:32:45;97;87;
77515;PMS5003;66627;29.424;-98.496;2023-03-12T02:35:10;78;73;
77515;PMS5003;66627;29.424;-98.496;2023-03-12T02:40:03;140;123;
77515;PMS5003;66627;29.424;-98.496;2023-03-12T02:42:27;295;268;
77515;PMS5003;66627;29.424;-98.496;2023-03-12T02:44:52;58;53;
77515;PMS5003;66627;29.424;-98.496;2023-03-12T02:47:17;81;78;
77515;PMS5003;66627;29.424;-98.496;2023-03-12T02:49:42;51;44;
77515;PMS5003;66627;29.424;-98.496;2023-03-12T02:52:08;73;61;
77515;PMS5003;66627;29.424;-98.496;2023-03-12T02:54:34;111;102;
77515;PMS5003;66627;29.424;-98.496;2023-03-12T02:57:00;176;166;
77515;PMS5003;66627;29.424;-98.496;2023-03-12T02:59:25;194;181;
77515;PMS5003;66627;29.424;-98.496;2023-03-12T03:01:51;193;186;
77515;PMS5003;66627;29.424;-98.496;2023-03-12T03:04:16;62;55;
77515;PMS5003;66627;29.424;-98.496;2023-03-12T03:06:41;202;184;
77515;PMS5003;66627;29.424;-98.496;2023-03-12T03:09:06;78;75;
77515;PMS5003;66627;29.424;-98.496;2023-03-12T03:11:32;42;40;
77515;PMS5003;66627;29.424;-98.496;2023-03-12T03:13:57;67;60;
77515;PMS5003;66627;29.424;-98.496;2023-03-12T03:16:23;62;54;
77515;PMS5003;66627;29.424;-98.496;2023-03-12T03:18:47;50;49;
77515;PMS5003;66627;29.424;-98.496;2023-03-12T03:21:13;71;63;
77515;PMS5003;66627;29.424;-98.496;2023-03-12T03:23:38;41;37;
77515;PMS5003;66627;29.424;-98.496;2023-03-12T03:26:04;42;37;
77515;PMS5003;66627;29.424;-98.496;2023-03-12T03:28:30;77;70;
77515;PMS5003;66627;29.424;-98.496;2023-03-12T03:30:56;71;67;
77515;PMS5003;66627;29.424;-98.496;2023-03-12T03:33:20;80;69;
77515;PMS5003;66627;29.424;-98.496;2023-03-12T03:35:46;78;72;
77515;PMS5003;66627;29.424;-98.496;2023-03-12T03:38:11;48;47;
77515;PMS5003;66627;29.424;-98.496;2023-03-12T03:40:37;60;54;
77515;PMS5003;66627;29.424;-98.496;2023-03-12T03:43:02;51;47;
77515;PMS5003;66627;29.424;-98.496;2023-03-12T03:45:28;40;39;
77515;PMS5003;66627;29.424;-98.496;2023-03-12T03:47:53;72;64;
77515;PMS5003;66627;29.424;-98.496;2023-03-12T03:50:19;71;65;
77515;PMS5003;66627;29.424;-98.496;2023-03-12T03:52:46;116;106;
77515;PMS5003;66627;29.424;-98.496;2023-03-12T03:55:10;139;123;
77515;PMS5003;66627;29.424;-98.496;2023-03-12T03:57:36;65;61;
77515;PMS5003;66627;29.424;-98.496;2023-03-12T04:00:01;120;109;
77515;PMS5003;66627;29.424;-98.496;2023-03-12T04:02:27;38;38;
77515;PMS5003;66627;29.424;-98.496;2023-03-12T04:04:56;70;67;
77515;PMS5003;66627;29.424;-98.496;2023-03-12T04:07:19;159;144;
77515;PMS5003;66627;29.424;-98.496;2023-03-12T04:09:44;102;94;
77515;PMS5003;66627;29.424;-98.496;2023-03-12T04:12:10;110;104;
77515;PMS5003;66627;29.424;-98.496;2023-03-12T04:14:38;152;136;
77515;PMS5003;66627;29.424;-98.496;2023-03-12T04:17:01;89;82;
77515;PMS5003;66627;29.424;-98.496;2023-03-12T04:19:27;68;64;
77515;PMS5003;66627;29.424;-98.496;2023-03-12T04:21:52;62;59;
77515;PMS5003;66627;29.424;-98.496;2023-03-12T04:24:17;44;38;
77515;PMS5003;66627;29.424;-98.496;2023-03-12T04:26:42;89;85;
77515;PMS5003;66627;29.424;-98.496;2023-03-12T04:29:07;41;41;
77515;PMS5003;66627;29.424;-98.496;2023-03-12T04:31:33;125;115;
77515;PMS5003;66627;29.424;-98.496;2023-03-12T04:33:58;29;29;
77515;PMS5003;66627;29.424;-98.496;2023-03-12T04:36:23;123;114;
77515;PMS5003;66627;29.424;-98.496;2023-03-12T04:38:49;97;86;
77515;PMS5003;66627;29.424;-98.496;2023-03-12T04:41:15;149;137;
77515;PMS5003;66627;29.424;-98.496;2023-03-12T04:43:40;64;60;
77515;PMS5003;66627;29.424;-98.496;2023-03-12T04:46:05;95;89;
77515;PMS5003;66627;29.424;-98.496;2023-03-12T04:48:31;73;67;
77515;PMS5003;66627;29.424;-98.496;2023-03-12T04:50:56;86;82;
77515;PMS5003;66627;29.424;-98.496;2023-03-12T04:53:22;63;60;
77515;PMS5003;66627;29.424;-98.496;2023-03-12T04:55:47;62;56;
77515;PMS5003;66627;29.424;-98.496;2023-03-12T04:58:13;35;30;
77515;PMS5003;66627;29.424;-98.496;2023-03-12T05:00:38;69;66;
77515;PMS5003;66627;29.424;-98.496;2023-03-12T05:03:03;36;35;
77515;PMS5003;66627;29.424;-98.496;2023-03-12T05:05:28;77;68;
77515;PMS5003;66627;29.424;-98.496;2023-03-12T05:07:54;56;48;
77515;PMS5003;66627;29.424;-98.496;2023-03-12T05:10:19;52;50;
77515;PMS5003;66627;29.424;-98.496;2023-03-12T05:12:44;64;60;
77515;PMS5003;66627;29.424;-98.496;2023-03-12T05:15:10;61;57;
77515;PMS5003;66627;29.424;-98.496;2023-03-12T05:17:34;36;34;
77515;PMS5003;66627;29.424;-98.496;2023-03-12T05:20:00;28;28;
77515;PMS5003;66627;29.424;-98.496;2023-03-12T05:22:25;31;29;
77515;PMS5003;66627;29.424;-98.496;2023-03-12T05:24:50;28;27;
77515;PMS5003;66627;29.424;-98.496;2023-03-12T05:27:16;27;25;
77515;PMS5003;66627;29.424;-98.496;2023-03-12T05:29:41;24;24;
77515;PMS5003;66627;29.424;-98.496;2023-03-12T05:32:07;27;27;
77515;PMS5003;66627;29.424;-98.496;2023-03-12T05:34:32;31;29;
77515;PMS5003;66627;29.424;-98.496;2023-03-12T05:36:57;31;30;
77515;PMS5003;66627;29.424;-98.496;2023-03-12T05:39:23;32;29;
77515;PMS5003;66627;29.424;-98.496;2023-03-12T05:41:49;27;27;
77515;PMS5003;66627;29.424;-98.496;2023-03-12T05:44:14;32;30;
77515;PMS5003;66627;29.424;-98.496;2023-03-12T05:46:40;28;28;
77515;PMS5003;66627;29.424;-98.496;2023-03-12T05:49:05;41;40;
77515;PMS5003;66627;29.424;-98.496;2023-03-12T05:51:30;35;34;
77515;PMS5003;66627;29.424;-98.496;2023-03-12T05:53:56;40;36;
77515;PMS5003;66627;29.424;-98.496;2023-03-12T05:56:21;47;42;
77515;PMS5003;66627;29.424;-98.496;2023-03-12T05:58:47;38;37;
77515;PMS5003;66627;29.424;-98.496;2023-03-12T06:01:13;37;37;
77515;PMS5003;66627;29.424;-98.496;2023-03-12T06:03:37;33;32;
77515;PMS5003;66627;29.424;-98.496;2023-03-12T06:06:03;31;31;
77515;PMS5003;66627;29.424;-98.496;2023-03-12T06:08:28;33;32;
77515;PMS5003;66627;29.424;-98.496;2023-03-12T06:10:53;40;39;
77515;PMS5003;66627;29.424;-98.496;2023-03-12T06:13:20;42;41;
77515;PMS5003;66627;29.424;-98.496;2023-03-12T06:15:45;42;40;
77515;PMS5003;66627;29.424;-98.496;2023-03-12T06:18:10;38;37;
77515;PMS5003;66627;29.424;-98.496;2023-03-12T06:20:36;41;39;
77515;PMS5003;66627;29.424;-98.496;2023-03-12T06:23:01;48;42;
77515;PMS5003;66627;29.424;-98.496;2023-03-12T06:25:27;50;45;
77515;PMS5003;66627;29.424;-98.496;2023-03-12T06:27:52;39;38;
77515;PMS5003;66627;29.424;-98.496;2023-03-12T06:30:17;42;41;
77515;PMS5003;66627;29.424;-98.496;2023-03-12T06:32:43;41;40;
77515;PMS5003;66627;29.424;-98.496;2023-03-12T06:35:08;38;37;
77515;PMS5003;66627;29.424;-98.496;2023-03-12T06:37:33;45;43;
77515;PMS5003;66627;29.424;-98.496;2023-03-12T06:39:58;52;46;
77515;PMS5003;66627;29.424;-98.496;2023-03-12T06:42:23;54;52;
77515;PMS5003;66627;29.424;-98.496;2023-03-12T06:44:49;60;51;
77515;PMS5003;66627;29.424;-98.496;2023-03-12T06:47:14;47;47;
77515;PMS5003;66627;29.424;-98.496;2023-03-12T06:49:39;53;48;
77515;PMS5003;66627;29.424;-98.496;2023-03-12T06:52:04;46;43;
77515;PMS5003;66627;29.424;-98.496;2023-03-12T06:54:30;40;40;
77515;PMS5003;66627;29.424;-98.496;2023-03-12T06:56:55;47;38;
77515;PMS5003;66627;29.424;-98.496;2023-03-12T06:59:22;36;32;
77515;PMS5003;66627;29.424;-98.496;2023-03-12T07:01:47;39;36;
77515;PMS5003;66627;29.424;-98.496;2023-03-12T07:04:12;34;30;
77515;PMS5003;66627;29.424;-98.496;2023-03-12T07:06:37;43;40;
77515;PMS5003;66627;29.424;-98.496;2023-03-12T07:09:03;41;39;
77515;PMS5003;66627;29.424;-98.496;2023-03-12T07:11:28;36;35;
77515;PMS5003;66627;29.424;-98.496;2023-03-12T07:13:54;44;38;
77515;PMS5003;66627;29.424;-98.496;2023-03-12T07:16:19;38;35;
77515;PMS5003;66627;29.424;-98.496;2023-03-12T07:18:45;41;38;
77515;PMS5003;66627;29.424;-98.496;2023-03-12T07:21:11;36;33;
77515;PMS5003;66627;29.424;-98.496;2023-03-12T07:23:36;34;32;
77515;PMS5003;66627;29.424;-98.496;2023-03-12T07:26:02;31;30;
77515;PMS5003;66627;29.424;-98.496;2023-03-12T07:28:27;38;38;
77515;PMS5003;66627;29.424;-98.496;2023-03-12T07:30:52;35;33;
77515;PMS5003;66627;29.424;-98.496;2023-03-12T07:33:18;32;30;
77515;PMS5003;66627;29.424;-98.496;2023-03-12T07:35:44;36;36;
77515;PMS5003;66627;29.424;-98.496;2023-03-12T07:38:09;28;27;
77515;PMS5003;66627;29.424;-98.496;2023-03-12T07:40:34;35;33;
77515;PMS5003;66627;29.424;-98.496;2023-03-12T07:42:59;32;30;
77515;PMS5003;66627;29.424;-98.496;2023-03-12T07:45:25;31;31;
77515;PMS5003;66627;29.424;-98.496;2023-03-12T07:47:51;36;33;
77515;PMS5003;66627;29.424;-98.496;2023-03-12T07:50:17;30;30;
77515;PMS5003;66627;29.424;-98.496;2023-03-12T07:52:43;40;36;
77515;PMS5003;66627;29.424;-98.496;2023-03-12T07:55:08;35;30;
77515;PMS5003;66627;29.424;-98.496;2023-03-12T07:57:34;36;33;
77515;PMS5003;66627;29.424;-98.496;2023-03-12T07:59:59;41;35;
77515;PMS5003;66627;29.424;-98.496;2023-03-12T08:02:24;42;42;
77515;PMS5003;66627;29.424;-98.496;2023-03-12T08:04:50;35;33;
77515;PMS5003;66627;29.424;-98.496;2023-03-12T08:07:16;44;35;
77515;PMS5003;66627;29.424;-98.496;2023-03-12T08:09:41;37;36;
77515;PMS5003;66627;29.424;-98.496;2023-03-12T08:12:08;36;33;
77515;PMS5003;66627;29.424;-98.496;2023-03-12T08:14:32;35;34;
77515;PMS5003;66627;29.424;-98.496;2023-03-12T08:16:58;37;33;
77515;PMS5003;66627;29.424;-98.496;2023-03-12T08:19:24;33;32;
77515;PMS5003;66627;29.424;-98.496;2023-03-12T08:21:50;35;34;
77515;PMS5003;66627;29.424;-98.496;2023-03-12T08:24:15;35;33;
77515;PMS5003;66627;29.424;-98.496;2023-03-12T08:26:41;35;34;
77515;PMS5003;66627;29.424;-98.496;2023-03-12T08:29:07;34;32;
77515;PMS5003;66627;29.424;-98.496;2023-03-12T08:31:32;36;34;
77515;PMS5003;66627;29.424;-98.496;2023-03-12T08:33:57;32;30;
77515;PMS5003;66627;29.424;-98.496;2023-03-12T08:36:23;38;34;
77515;PMS5003;66627;29.424;-98.496;2023-03-12T08:38:49;34;33;
77515;PMS5003;66627;29.424;-98.496;2023-03-12T08:41:14;31;31;
77515;PMS5003;66627;29.424;-98.496;2023-03-12T08:43:40;31;29;
77515;PMS5003;66627;29.424;-98.496;2023-03-12T08:46:06;39;35;
77515;PMS5003;66627;29.424;-98.496;2023-03-12T08:48:31;36;33;
77515;PMS5003;66627;29.424;-98.496;2023-03-12T08:50:56;40;36;
77515;PMS5003;66627;29.424;-98.496;2023-03-12T08:53:21;33;32;
77515;PMS5003;66627;29.424;-98.496;2023-03-12T08:55:47;31;29;
77515;PMS5003;66627;29.424;-98.496;2023-03-12T08:58:12;38;38;
77515;PMS5003;66627;29.424;-98.496;2023-03-12T09:00:38;32;31;
77515;PMS5003;66627;29.424;-98.496;2023-03-12T09:03:03;35;31;
77515;PMS5003;66627;29.424;-98.496;2023-03-12T09:05:28;38;36;
77515;PMS5003;66627;29.424;-98.496;2023-03-12T09:07:54;36;33;
77515;PMS5003;66627;29.424;-98.496;2023-03-12T09:10:20;30;28;
77515;PMS5003;66627;29.424;-98.496;2023-03-12T09:12:45;31;30;
77515;PMS5003;66627;29.424;-98.496;2023-03-12T09:15:11;36;33;
77515;PMS5003;66627;29.424;-98.496;2023-03-12T09:17:36;38;35;
77515;PMS5003;66627;29.424;-98.496;2023-03-12T09:20:02;32;30;
77515;PMS5003;66627;29.424;-98.496;2023-03-12T09:24:53;34;30;
77515;PMS5003;66627;29.424;-98.496;2023-03-12T09:27:19;37;34;
77515;PMS5003;66627;29.424;-98.496;2023-03-12T09:29:44;33;31;
77515;PMS5003;66627;29.424;-98.496;2023-03-12T09:32:10;30;30;
77515;PMS5003;66627;29.424;-98.496;2023-03-12T09:34:35;35;33;
77515;PMS5003;66627;29.424;-98.496;2023-03-12T09:37:01;32;27;
77515;PMS5003;66627;29.424;-98.496;2023-03-12T09:39:27;43;38;
77515;PMS5003;66627;29.424;-98.496;2023-03-12T09:41:53;36;33;
77515;PMS5003;66627;29.424;-98.496;2023-03-12T09:44:19;35;34;
77515;PMS5003;66627;29.424;-98.496;2023-03-12T09:46:45;36;35;
77515;PMS5003;66627;29.424;-98.496;2023-03-12T09:49:12;36;33;
77515;PMS5003;66627;29.424;-98.496;2023-03-12T09:51:36;33;33;
77515;PMS5003;66627;29.424;-98.496;2023-03-12T09:54:01;40;37;
77515;PMS5003;66627;29.424;-98.496;2023-03-12T09:56:25;31;31;
77515;PMS5003;66627;29.424;-98.496;2023-03-12T09:58:51;42;37;
77515;PMS5003;66627;29.424;-98.496;2023-03-12T10:01:22;38;38;
77515;PMS5003;66627;29.424;-98.496;2023-03-12T10:03:48;43;40;
77515;PMS5003;66627;29.424;-98.496;2023-03-12T10:06:10;36;36;
77515;PMS5003;66627;29.424;-98.496;2023-03-12T10:08:34;45;36;
77515;PMS5003;66627;29.424;-98.496;2023-03-12T10:10:59;42;40;
77515;PMS5003;66627;29.424;-98.496;2023-03-12T10:13:28;52;40;
77515;PMS5003;66627;29.424;-98.496;2023-03-12T10:15:52;47;44;
77515;PMS5003;66627;29.424;-98.496;2023-03-12T10:18:17;39;35;
77515;PMS5003;66627;29.424;-98.496;2023-03-12T10:23:05;43;38;
77515;PMS5003;66627;29.424;-98.496;2023-03-12T10:25:30;42;38;
77515;PMS5003;66627;29.424;-98.496;2023-03-12T10:27:56;39;36;
77515;PMS5003;66627;29.424;-98.496;2023-03-12T10:30:22;35;32;
77515;PMS5003;66627;29.424;-98.496;2023-03-12T10:32:47;43;43;
77515;PMS5003;66627;29.424;-98.496;2023-03-12T10:35:13;40;40;
77515;PMS5003;66627;29.424;-98.496;2023-03-12T10:37:38;40;37;
77515;PMS5003;66627;29.424;-98.496;2023-03-12T10:40:03;40;36;
77515;PMS5003;66627;29.424;-98.496;2023-03-12T10:42:28;39;39;
77515;PMS5003;66627;29.424;-98.496;2023-03-12T10:44:54;38;35;
77515;PMS5003;66627;29.424;-98.496;2023-03-12T10:47:27;39;38;
77515;PMS5003;66627;29.424;-98.496;2023-03-12T10:49:44;33;31;
77515;PMS5003;66627;29.424;-98.496;2023-03-12T10:52:14;32;32;
77515;PMS5003;66627;29.424;-98.496;2023-03-12T10:54:36;40;34;
77515;PMS5003;66627;29.424;-98.496;2023-03-12T10:57:01;37;33;
77515;PMS5003;66627;29.424;-98.496;2023-03-12T10:59:28;40;34;
77515;PMS5003;66627;29.424;-98.496;2023-03-12T11:01:52;40;36;
77515;PMS5003;66627;29.424;-98.496;2023-03-12T11:04:18;39;37;
77515;PMS5003;66627;29.424;-98.496;2023-03-12T11:06:45;38;38;
77515;PMS5003;66627;29.424;-98.496;2023-03-12T11:11:35;42;40;
77515;PMS5003;66627;29.424;-98.496;2023-03-12T11:14:05;36;33;
77515;PMS5003;66627;29.424;-98.496;2023-03-12T11:16:26;37;35;
77515;PMS5003;66627;29.424;-98.496;2023-03-12T11:18:53;34;33;
77515;PMS5003;66627;29.424;-98.496;2023-03-12T11:21:18;38;36;
77515;PMS5003;66627;29.424;-98.496;2023-03-12T11:23:44;42;40;
77515;PMS5003;66627;29.424;-98.496;2023-03-12T11:26:11;37;36;
77515;PMS5003;66627;29.424;-98.496;2023-03-12T11:28:35;39;35;
77515;PMS5003;66627;29.424;-98.496;2023-03-12T11:30:59;40;38;
77515;PMS5003;66627;29.424;-98.496;2023-03-12T11:33:26;42;38;
77515;PMS5003;66627;29.424;-98.496;2023-03-12T11:35:54;38;36;
77515;PMS5003;66627;29.424;-98.496;2023-03-12T11:38:17;40;39;
77515;PMS5003;66627;29.424;-98.496;2023-03-12T11:43:11;41;38;
77515;PMS5003;66627;29.424;-98.496;2023-03-12T11:45:33;44;41;
77515;PMS5003;66627;29.424;-98.496;2023-03-12T11:47:59;46;38;
77515;PMS5003;66627;29.424;-98.496;2023-03-12T11:50:25;46;39;
77515;PMS5003;66627;29.424;-98.496;2023-03-12T11:52:54;50;45;
77515;PMS5003;66627;29.424;-98.496;2023-03-12T11:55:15;44;41;
77515;PMS5003;66627;29.424;-98.496;2023-03-12T11:57:41;51;46;
77515;PMS5003;66627;29.424;-98.496;2023-03-12T12:00:09;41;38;
77515;PMS5003;66627;29.424;-98.496;2023-03-12T12:02:35;37;36;
77515;PMS5003;66627;29.424;-98.496;2023-03-12T12:04:58;42;42;
77515;PMS5003;66627;29.424;-98.496;2023-03-12T12:07:26;37;35;
77515;PMS5003;66627;29.424;-98.496;2023-03-12T12:09:47;41;35;
77515;PMS5003;66627;29.424;-98.496;2023-03-12T12:12:15;45;41;
77515;PMS5003;66627;29.424;-98.496;2023-03-12T12:14:44;46;43;
77515;PMS5003;66627;29.424;-98.496;2023-03-12T12:17:04;41;39;
77515;PMS5003;66627;29.424;-98.496;2023-03-12T12:19:32;45;41;
77515;PMS5003;66627;29.424;-98.496;2023-03-12T12:21:59;42;39;
77515;PMS5003;66627;29.424;-98.496;2023-03-12T12:24:23;44;41;
77515;PMS5003;66627;29.424;-98.496;2023-03-12T12:26:45;43;38;
77515;PMS5003;66627;29.424;-98.496;2023-03-12T12:31:37;43;36;
77515;PMS5003;66627;29.424;-98.496;2023-03-12T12:34:04;44;44;
77515;PMS5003;66627;29.424;-98.496;2023-03-12T12:36:24;48;42;
77515;PMS5003;66627;29.424;-98.496;2023-03-12T12:38:51;53;45;
77515;PMS5003;66627;29.424;-98.496;2023-03-12T12:41:15;40;39;
77515;PMS5003;66627;29.424;-98.496;2023-03-12T12:43:40;40;34;
77515;PMS5003;66627;29.424;-98.496;2023-03-12T12:46:06;40;39;
77515;PMS5003;66627;29.424;-98.496;2023-03-12T12:48:32;42;40;
77515;PMS5003;66627;29.424;-98.496;2023-03-12T12:50:56;43;40;
77515;PMS5003;66627;29.424;-98.496;2023-03-12T12:53:23;34;34;
77515;PMS5003;66627;29.424;-98.496;2023-03-12T12:55:50;41;36;
77515;PMS5003;66627;29.424;-98.496;2023-03-12T12:58:14;48;45;
77515;PMS5003;66627;29.424;-98.496;2023-03-12T13:00:40;40;40;
77515;PMS5003;66627;29.424;-98.496;2023-03-12T13:03:03;41;36;
77515;PMS5003;66627;29.424;-98.496;2023-03-12T13:07:54;47;43;
77515;PMS5003;66627;29.424;-98.496;2023-03-12T13:12:47;47;42;
77515;PMS5003;66627;29.424;-98.496;2023-03-12T13:17:57;47;43;
77515;PMS5003;66627;29.424;-98.496;2023-03-12T13:22:33;41;39;
77515;PMS5003;66627;29.424;-98.496;2023-03-12T13:24:55;32;32;
77515;PMS5003;66627;29.424;-98.496;2023-03-12T13:27:18;33;31;
77515;PMS5003;66627;29.424;-98.496;2023-03-12T13:29:44;31;26;
77515;PMS5003;66627;29.424;-98.496;2023-03-12T13:32:34;26;22;
77515;PMS5003;66627;29.424;-98.496;2023-03-12T13:37:00;24;22;
77515;PMS5003;66627;29.424;-98.496;2023-03-12T13:39:27;18;17;
77515;PMS5003;66627;29.424;-98.496;2023-03-12T13:41:52;17;17;
77515;PMS5003;66627;29.424;-98.496;2023-03-12T13:46:42;9;9;
77515;PMS5003;66627;29.424;-98.496;2023-03-12T13:49:11;8;8;
77515;PMS5003;66627;29.424;-98.496;2023-03-12T13:51:32;6;5;
77515;PMS5003;66627;29.424;-98.496;2023-03-12T13:53:57;8;6;
77515;PMS5003;66627;29.424;-98.496;2023-03-12T13:56:24;3;3;
77515;PMS5003;66627;29.424;-98.496;2023-03-12T13:58:47;4;4;
77515;PMS5003;66627;29.424;-98.496;2023-03-12T14:01:12;3;3;
77515;PMS5003;66627;29.424;-98.496;2023-03-12T14:03:38;4;4;
77515;PMS5003;66627;29.424;-98.496;2023-03-12T14:06:07;3;3;
77515;PMS5003;66627;29.424;-98.496;2023-03-12T14:08:41;4;2;
77515;PMS5003;66627;29.424;-98.496;2023-03-12T14:10:57;4;4;
77515;PMS5003;66627;29.424;-98.496;2023-03-12T14:13:23;1;1;
77515;PMS5003;66627;29.424;-98.496;2023-03-12T14:15:44;2;2;
77515;PMS5003;66627;29.424;-98.496;2023-03-12T14:18:11;4;4;
77515;PMS5003;66627;29.424;-98.496;2023-03-12T14:20:36;5;5;
77515;PMS5003;66627;29.424;-98.496;2023-03-12T14:23:01;3;3;
77515;PMS5003;66627;29.424;-98.496;2023-03-12T14:25:30;4;3;
77515;PMS5003;66627;29.424;-98.496;2023-03-12T14:27:50;4;3;
77515;PMS5003;66627;29.424;-98.496;2023-03-12T14:30:18;4;4;
77515;PMS5003;66627;29.424;-98.496;2023-03-12T14:32:40;5;4;
77515;PMS5003;66627;29.424;-98.496;2023-03-12T14:35:11;3;3;
77515;PMS5003;66627;29.424;-98.496;2023-03-12T14:37:31;5;4;
77515;PMS5003;66627;29.424;-98.496;2023-03-12T14:39:57;5;3;
77515;PMS5003;66627;29.424;-98.496;2023-03-12T14:42:22;3;3;
77515;PMS5003;66627;29.424;-98.496;2023-03-12T14:47:16;8;3;
77515;PMS5003;66627;29.424;-98.496;2023-03-12T14:49:38;2;2;
77515;PMS5003;66627;29.424;-98.496;2023-03-12T14:52:02;4;2;
77515;PMS5003;66627;29.424;-98.496;2023-03-12T14:54:27;3;3;
77515;PMS5003;66627;29.424;-98.496;2023-03-12T14:56:52;3;3;
77515;PMS5003;66627;29.424;-98.496;2023-03-12T14:59:21;2;2;
77515;PMS5003;66627;29.424;-98.496;2023-03-12T15:01:42;3;3;
77515;PMS5003;66627;29.424;-98.496;2023-03-12T15:04:13;2;2;
77515;PMS5003;66627;29.424;-98.496;2023-03-12T15:06:33;3;3;
77515;PMS5003;66627;29.424;-98.496;2023-03-12T15:08:58;3;3;
77515;PMS5003;66627;29.424;-98.496;2023-03-12T15:11:24;4;3;
77515;PMS5003;66627;29.424;-98.496;2023-03-12T15:13:48;3;3;
77515;PMS5003;66627;29.424;-98.496;2023-03-12T15:16:13;3;3;
77515;PMS5003;66627;29.424;-98.496;2023-03-12T15:18:38;4;4;
77515;PMS5003;66627;29.424;-98.496;2023-03-12T15:21:03;4;4;
77515;PMS5003;66627;29.424;-98.496;2023-03-12T15:23:29;3;3;
77515;PMS5003;66627;29.424;-98.496;2023-03-12T15:28:25;6;6;
77515;PMS5003;66627;29.424;-98.496;2023-03-12T15:30:44;4;4;
77515;PMS5003;66627;29.424;-98.496;2023-03-12T15:33:10;6;3;
77515;PMS5003;66627;29.424;-98.496;2023-03-12T15:35:35;3;3;
77515;PMS5003;66627;29.424;-98.496;2023-03-12T15:38:00;5;5;
77515;PMS5003;66627;29.424;-98.496;2023-03-12T15:40:26;4;4;
77515;PMS5003;66627;29.424;-98.496;2023-03-12T15:42:50;3;3;
77515;PMS5003;66627;29.424;-98.496;2023-03-12T15:45:16;6;6;
77515;PMS5003;66627;29.424;-98.496;2023-03-12T15:47:40;5;5;
77515;PMS5003;66627;29.424;-98.496;2023-03-12T15:50:08;5;5;
77515;PMS5003;66627;29.424;-98.496;2023-03-12T15:52:31;5;5;
77515;PMS5003;66627;29.424;-98.496;2023-03-12T15:55:02;3;3;
77515;PMS5003;66627;29.424;-98.496;2023-03-12T15:57:22;5;5;
77515;PMS5003;66627;29.424;-98.496;2023-03-12T15:59:49;5;5;
77515;PMS5003;66627;29.424;-98.496;2023-03-12T16:02:11;3;3;
77515;PMS5003;66627;29.424;-98.496;2023-03-12T16:04:36;6;6;
77515;PMS5003;66627;29.424;-98.496;2023-03-12T16:07:01;8;6;
77515;PMS5003;66627;29.424;-98.496;2023-03-12T16:09:27;7;6;